Time;durP1;ratioP1;P1;durP2;ratioP2;P2;SDS_P1;SDS_P2;PMS_P1;PMS_P2;Temp;Humidity;BMP_temperature;BMP_pressure;BME280_temperature;BME280_humidity;BME280_pressure;Samples;Min_cycle;Max_cycle;Signal;HPM_P1;HPM_P2
2021/06/30 00:00:39;;;;;;;;;13.25;9.00;;;;;17.86;100.00;101164.09;5078913;27;45268;-77
2021/06/30 00:03:05;;;;;;;;;10.75;8.75;;;;;17.87;100.00;101171.09;5077904;28;45235;-75
2021/06/30 00:05:30;;;;;;;;;14.00;10.25;;;;;17.83;100.00;101159.78;5079113;27;45374;-74
2021/06/30 00:07:56;;;;;;;;;11.00;10.00;;;;;17.80;100.00;101154.63;5077454;28;46238;-75
2021/06/30 00:10:21;;;;;;;;;12.00;10.75;;;;;17.84;100.00;101163.28;5079087;27;45440;-75
2021/06/30 00:16:09;;;;;;;;;13.25;12.25;;;;;17.92;100.00;101175.31;5078661;28;45316;-75
2021/06/30 00:18:34;;;;;;;;;9.00;9.00;;;;;17.86;100.00;101150.88;5079034;27;45433;-74
2021/06/30 00:21:00;;;;;;;;;7.75;7.25;;;;;17.88;100.00;101163.16;5078999;27;45332;-75
2021/06/30 00:23:26;;;;;;;;;7.00;6.50;;;;;17.92;100.00;101164.75;5079089;27;45359;-77
2021/06/30 00:25:51;;;;;;;;;7.25;7.25;;;;;17.88;100.00;101157.88;5079077;27;45323;-72
2021/06/30 00:28:17;;;;;;;;;9.25;7.25;;;;;17.81;100.00;101151.06;5078371;27;46576;-74
2021/06/30 00:30:42;;;;;;;;;5.50;5.50;;;;;17.84;100.00;101150.94;5078632;27;45391;-75
2021/06/30 00:33:08;;;;;;;;;7.50;5.75;;;;;17.89;100.00;101169.28;5078846;27;45326;-73
2021/06/30 00:35:33;;;;;;;;;6.00;6.00;;;;;17.80;100.00;101151.97;5078981;28;45364;-74
2021/06/30 00:37:58;;;;;;;;;6.00;5.75;;;;;17.83;100.00;101162.44;5078714;27;45428;-75
2021/06/30 00:40:24;;;;;;;;;8.50;6.50;;;;;17.78;100.00;101156.47;5078379;27;45422;-75
2021/06/30 00:46:11;;;;;;;;;5.00;4.25;;;;;17.77;100.00;101160.03;5078487;28;45387;-74
2021/06/30 00:48:36;;;;;;;;;5.50;5.00;;;;;17.70;100.00;101154.13;5078500;27;46323;-76
2021/06/30 00:51:02;;;;;;;;;7.50;5.00;;;;;17.75;100.00;101165.38;5078029;27;45387;-75
2021/06/30 00:53:27;;;;;;;;;6.00;6.00;;;;;17.74;100.00;101163.66;5078420;27;45650;-73
2021/06/30 00:55:53;;;;;;;;;7.25;6.75;;;;;17.70;100.00;101158.53;5078323;27;45339;-75
2021/06/30 01:01:40;;;;;;;;;5.75;5.00;;;;;17.72;100.00;101167.28;5078026;28;45451;-72
2021/06/30 01:04:06;;;;;;;;;7.25;7.00;;;;;17.73;100.00;101174.28;5077036;28;45363;-74
2021/06/30 01:06:32;;;;;;;;;6.50;5.00;;;;;17.71;100.00;101169.03;5076972;28;45492;-74
2021/06/30 01:09:03;;;;;;;;;5.00;5.00;;;;;17.67;100.00;101163.91;5077868;27;46110;-74
2021/06/30 01:11:29;;;;;;;;;7.50;6.50;;;;;17.68;100.00;101165.66;5078011;27;45365;-73
2021/06/30 01:13:55;;;;;;;;;5.00;4.00;;;;;17.71;100.00;101162.91;5078384;27;45318;-74
2021/06/30 01:16:20;;;;;;;;;8.25;7.00;;;;;17.67;100.00;101153.34;5078123;27;45446;-74
2021/06/30 01:18:46;;;;;;;;;5.00;5.00;;;;;17.73;100.00;101166.34;5077113;27;46476;-73
2021/06/30 01:21:11;;;;;;;;;5.75;5.25;;;;;17.69;100.00;101162.97;5078181;27;45384;-73
2021/06/30 01:23:38;;;;;;;;;7.75;7.00;;;;;17.75;100.00;101172.44;5077943;27;45468;-75
2021/06/30 01:26:04;;;;;;;;;8.00;7.00;;;;;17.73;100.00;101164.56;5078245;27;45390;-74
2021/06/30 01:31:51;;;;;;;;;8.50;7.00;;;;;17.68;100.00;101157.75;5075857;28;45583;-72
2021/06/30 01:34:17;;;;;;;;;7.50;6.50;;;;;17.67;100.00;101151.59;5077668;27;45345;-73
2021/06/30 01:36:54;;;;;;;;;7.75;7.00;;;;;17.66;100.00;101155.13;5076696;28;45608;-74
2021/06/30 01:39:21;;;;;;;;;6.75;6.00;;;;;17.70;100.00;101156.75;5077476;27;46104;-73
2021/06/30 01:41:48;;;;;;;;;7.75;6.75;;;;;17.71;100.00;101163.75;5077812;27;45495;-75
2021/06/30 01:44:14;;;;;;;;;9.00;8.00;;;;;17.67;100.00;101154.25;5077903;27;45236;-74
2021/06/30 01:46:43;;;;;;;;;8.00;6.75;;;;;17.74;100.00;101160.16;5077974;27;45324;-72
2021/06/30 01:49:09;;;;;;;;;8.00;8.00;;;;;17.69;100.00;101156.81;5077331;27;46655;-72
2021/06/30 01:51:35;;;;;;;;;9.00;8.00;;;;;17.77;100.00;101164.44;5077502;27;45372;-74
2021/06/30 01:54:02;;;;;;;;;6.75;6.25;;;;;17.77;100.00;101156.53;5077707;27;45390;-74
2021/06/30 01:56:31;;;;;;;;;8.25;6.75;;;;;17.78;100.00;101155.59;5077691;27;45523;-76
2021/06/30 01:58:59;;;;;;;;;6.75;6.25;;;;;17.80;100.00;101161.69;5077489;27;45458;-76
2021/06/30 02:01:24;;;;;;;;;10.00;8.00;;;;;17.81;100.00;101158.13;5077563;27;45525;-74
2021/06/30 02:03:50;;;;;;;;;7.00;6.50;;;;;17.81;100.00;101160.78;5077607;27;45344;-74
2021/06/30 02:06:15;;;;;;;;;8.50;7.50;;;;;17.82;100.00;101166.00;5077850;27;45252;-73
2021/06/30 02:08:40;;;;;;;;;8.25;7.00;;;;;17.82;100.00;101163.34;5076958;27;47487;-74
2021/06/30 02:11:06;;;;;;;;;10.75;9.00;;;;;17.73;100.00;101153.16;5077459;27;45252;-74
2021/06/30 02:16:53;;;;;;;;;9.50;8.75;;;;;17.76;100.00;101174.16;5077277;28;45351;-73
2021/06/30 02:19:19;;;;;;;;;6.50;6.25;;;;;17.71;100.00;101161.13;5077257;28;46389;-72
2021/06/30 02:21:44;;;;;;;;;9.75;8.75;;;;;17.77;100.00;101173.22;5077389;28;45361;-72
2021/06/30 02:24:10;;;;;;;;;9.50;7.00;;;;;17.74;100.00;101183.91;5077285;28;45359;-72
2021/06/30 02:26:36;;;;;;;;;9.00;8.50;;;;;17.72;100.00;101178.69;5077282;27;45307;-73
2021/06/30 02:32:23;;;;;;;;;9.50;7.25;;;;;17.71;100.00;101181.38;5074506;28;45564;-72
2021/06/30 02:34:48;;;;;;;;;8.25;8.00;;;;;17.71;100.00;101176.97;5080836;27;45638;-72
2021/06/30 02:37:14;;;;;;;;;12.25;9.00;;;;;17.77;100.00;101188.22;5080866;27;45325;-73
2021/06/30 02:39:40;;;;;;;;;8.50;7.75;;;;;17.74;100.00;101186.56;5080588;27;45498;-72
2021/06/30 02:42:05;;;;;;;;;9.00;8.75;;;;;17.67;100.00;101170.09;5079063;28;46055;-73
2021/06/30 02:44:30;;;;;;;;;10.00;7.00;;;;;17.76;100.00;101182.06;5080644;27;45275;-74
2021/06/30 02:46:56;;;;;;;;;6.25;6.25;;;;;17.77;100.00;101183.81;5079297;28;45416;-72
2021/06/30 02:49:21;;;;;;;;;7.25;7.25;;;;;17.65;100.00;101171.00;5080416;27;46084;-73
2021/06/30 02:51:47;;;;;;;;;8.25;8.25;;;;;17.76;100.00;101187.34;5080518;28;45320;-73
2021/06/30 02:54:12;;;;;;;;;9.50;8.25;;;;;17.78;100.00;101184.66;5080627;27;45279;-73
2021/06/30 02:56:38;;;;;;;;;9.50;8.50;;;;;17.79;100.00;101197.81;5080240;27;45290;-73
2021/06/30 03:02:25;;;;;;;;;13.25;11.25;;;;;17.74;100.00;101176.84;5079881;28;45356;-73
2021/06/30 03:04:50;;;;;;;;;8.00;7.00;;;;;17.74;100.00;101183.91;5080187;27;45428;-73
2021/06/30 03:07:16;;;;;;;;;11.75;9.00;;;;;17.77;100.00;101194.38;5080519;27;45247;-72
2021/06/30 03:09:41;;;;;;;;;10.25;9.00;;;;;17.75;100.00;101183.00;5078858;28;46310;-73
2021/06/30 03:12:07;;;;;;;;;7.50;7.00;;;;;17.76;100.00;101197.94;5079834;27;45351;-73
2021/06/30 03:14:32;;;;;;;;;11.00;9.75;;;;;17.71;100.00;101186.66;5080165;27;45285;-73
2021/06/30 03:16:58;;;;;;;;;12.25;8.50;;;;;17.79;100.00;101194.31;5080255;27;45226;-73
2021/06/30 03:19:23;;;;;;;;;9.25;8.00;;;;;17.69;100.00;101183.22;5080119;27;45322;-72
2021/06/30 03:21:49;;;;;;;;;11.75;10.75;;;;;17.67;100.00;101183.28;5079876;27;45251;-73
2021/06/30 03:24:14;;;;;;;;;8.50;8.00;;;;;17.74;100.00;101205.91;5080059;27;45289;-73
2021/06/30 03:26:40;;;;;;;;;13.00;10.50;;;;;17.69;100.00;101199.94;5079927;27;45401;-72
2021/06/30 03:32:27;;;;;;;;;11.75;8.00;;;;;17.73;100.00;101205.97;5078894;28;45383;-74
2021/06/30 03:34:52;;;;;;;;;10.00;8.00;;;;;17.66;100.00;101188.59;5080047;27;45324;-73
2021/06/30 03:37:17;;;;;;;;;9.50;9.00;;;;;17.72;100.00;101204.25;5079985;27;45237;-73
2021/06/30 03:39:43;;;;;;;;;9.25;7.25;;;;;17.70;100.00;101204.31;5079641;27;45326;-72
2021/06/30 03:42:08;;;;;;;;;9.25;9.00;;;;;17.66;100.00;101196.53;5078812;27;45466;-73
2021/06/30 03:44:34;;;;;;;;;8.00;7.00;;;;;17.61;100.00;101196.66;5079695;27;45347;-73
2021/06/30 03:46:59;;;;;;;;;10.00;9.00;;;;;17.68;100.00;101211.41;5079619;27;45292;-73
2021/06/30 03:49:25;;;;;;;;;7.25;7.25;;;;;17.66;100.00;101201.81;5079425;27;46306;-72
2021/06/30 03:51:50;;;;;;;;;8.25;7.25;;;;;17.69;100.00;101213.13;5079474;27;45371;-74
2021/06/30 03:54:16;;;;;;;;;8.00;6.50;;;;;17.62;100.00;101200.16;5079606;27;45701;-73
2021/06/30 03:56:41;;;;;;;;;8.50;7.50;;;;;17.71;100.00;101221.00;5079356;27;45530;-73
2021/06/30 04:02:28;;;;;;;;;8.00;6.00;;;;;17.54;100.00;101187.25;5078968;28;45454;-73
2021/06/30 04:04:53;;;;;;;;;9.00;8.50;;;;;17.61;100.00;101204.59;5079378;27;45722;-74
2021/06/30 04:07:19;;;;;;;;;10.00;9.00;;;;;17.65;100.00;101210.59;5079324;27;45449;-72
2021/06/30 04:09:44;;;;;;;;;9.00;6.75;;;;;17.67;100.00;101214.09;5079016;27;45355;-75
2021/06/30 04:12:10;;;;;;;;;9.00;7.50;;;;;17.64;100.00;101219.44;5078651;27;45336;-74
2021/06/30 04:17:59;;;;;;;;;7.00;7.00;;;;;17.54;100.00;101196.94;5079095;28;45275;-73
2021/06/30 04:20:25;;;;;;;;;9.00;8.25;;;;;17.57;100.00;101205.63;5078936;27;46469;-72
2021/06/30 04:22:51;;;;;;;;;10.50;9.25;;;;;17.56;100.00;101208.31;5078922;27;45687;-74
2021/06/30 04:25:16;;;;;;;;;7.25;7.25;;;;;17.49;100.00;101201.53;5077468;28;45700;-73
2021/06/30 04:27:41;;;;;;;;;10.00;8.00;;;;;17.59;100.00;101221.41;5077524;28;45429;-73
2021/06/30 04:30:09;;;;;;;;;6.00;6.00;;;;;17.54;100.00;101207.50;5078830;27;46261;-73
2021/06/30 04:32:35;;;;;;;;;7.50;6.50;;;;;17.50;100.00;101205.91;5078361;27;45649;-74
2021/06/30 04:35:00;;;;;;;;;9.00;7.00;;;;;17.56;100.00;101222.38;5078583;27;45730;-73
2021/06/30 04:37:26;;;;;;;;;10.75;7.50;;;;;17.51;100.00;101216.41;5078639;27;45384;-74
2021/06/30 04:39:51;;;;;;;;;7.00;6.50;;;;;17.55;100.00;101225.06;5078535;27;45582;-73
2021/06/30 04:42:18;;;;;;;;;12.00;8.00;;;;;17.55;100.00;101218.00;5078299;27;45272;-73
2021/06/30 04:48:05;;;;;;;;;9.25;7.75;;;;;17.53;100.00;101214.56;5078450;28;45437;-73
2021/06/30 04:50:30;;;;;;;;;34.50;27.25;;;;;17.54;100.00;101218.06;5078086;27;47208;-74
2021/06/30 04:52:56;;;;;;;;;9.75;9.75;;;;;17.56;100.00;101226.78;5078187;27;45320;-74
2021/06/30 04:55:21;;;;;;;;;7.75;7.75;;;;;17.55;100.00;101230.34;5078134;27;45321;-73
2021/06/30 04:57:46;;;;;;;;;8.75;7.00;;;;;17.51;100.00;101215.53;5078450;27;45341;-74
2021/06/30 05:00:12;;;;;;;;;7.75;7.00;;;;;17.48;100.00;101215.66;5078265;27;45240;-81
2021/06/30 05:02:37;;;;;;;;;9.00;6.00;;;;;17.53;100.00;101229.53;5076870;28;45305;-80
2021/06/30 05:05:03;;;;;;;;;10.25;7.50;;;;;17.46;100.00;101218.34;5078383;27;45407;-78
2021/06/30 05:07:29;;;;;;;;;7.75;7.00;;;;;17.55;100.00;101228.56;5078549;27;45270;-81
2021/06/30 05:09:54;;;;;;;;;8.75;8.00;;;;;17.50;100.00;101229.66;5077751;27;46560;-79
2021/06/30 05:12:20;;;;;;;;;7.75;7.00;;;;;17.50;100.00;101235.78;5078188;27;45163;-73
2021/06/30 05:18:07;;;;;;;;;9.00;8.00;;;;;17.55;100.00;101235.63;5077973;28;45351;-77
2021/06/30 05:20:32;;;;;;;;;8.25;7.00;;;;;17.50;100.00;101227.00;5077964;27;46440;-81
2021/06/30 05:22:58;;;;;;;;;9.00;8.25;;;;;17.55;100.00;101228.56;5077747;27;45290;-77
2021/06/30 05:25:23;;;;;;;;;6.50;6.25;;;;;17.61;100.00;101238.03;5077774;27;45150;-74
2021/06/30 05:27:49;;;;;;;;;6.25;6.00;;;;;17.51;100.00;101226.09;5077716;27;45299;-73
2021/06/30 05:30:15;;;;;;;;;6.25;5.25;;;;;17.45;100.00;101229.81;5077765;27;45280;-74
2021/06/30 05:32:41;;;;;;;;;8.25;7.00;;;;;17.59;100.00;101250.44;5077320;27;45512;-70
2021/06/30 05:35:07;;;;;;;;;7.00;6.00;;;;;17.53;100.00;101242.75;5077981;27;45319;-72
2021/06/30 05:37:33;;;;;;;;;8.00;8.00;;;;;17.57;100.00;101252.28;5078062;27;45327;-73
2021/06/30 05:39:59;;;;;;;;;10.00;8.00;;;;;17.57;100.00;101249.63;5077717;27;46285;-71
2021/06/30 05:42:24;;;;;;;;;8.00;7.00;;;;;17.59;100.00;101261.00;5077398;27;45301;-75
2021/06/30 05:48:11;;;;;;;;;8.75;8.25;;;;;17.60;100.00;101252.16;5077006;28;45340;-73
2021/06/30 05:50:37;;;;;;;;;8.25;7.00;;;;;17.61;100.00;101253.88;5076545;27;46515;-77
2021/06/30 05:53:02;;;;;;;;;7.00;7.00;;;;;17.58;100.00;101246.94;5077032;27;45387;-75
2021/06/30 05:55:28;;;;;;;;;5.50;5.00;;;;;17.57;100.00;101247.84;5077476;27;45391;-74
2021/06/30 05:57:53;;;;;;;;;6.00;6.00;;;;;17.67;100.00;101267.78;5077571;27;45438;-76
2021/06/30 06:00:23;;;;;;;;;7.25;6.75;;;;;17.70;100.00;101267.69;5077556;27;46541;-75
2021/06/30 06:02:49;;;;;;;;;6.50;6.50;;;;;17.69;100.00;101259.81;5077191;27;45539;-76
2021/06/30 06:05:16;;;;;;;;;9.25;7.25;;;;;17.67;100.00;101259.88;5079641;27;45264;-75
2021/06/30 06:07:41;;;;;;;;;7.50;7.00;;;;;17.65;100.00;101261.69;5081024;27;45518;-72
2021/06/30 06:10:10;;;;;;;;;7.00;6.50;;;;;17.66;100.00;101258.13;5080591;27;45565;-75
2021/06/30 06:12:35;;;;;;;;;5.25;4.50;;;;;17.75;100.00;101273.66;5080872;27;45509;-74
2021/06/30 06:18:23;;;;;;;;;7.00;7.00;;;;;17.74;100.00;101277.22;5080971;28;45280;-75
2021/06/30 06:20:48;;;;;;;;;7.50;7.00;;;;;17.71;100.00;101281.75;5080561;27;46605;-75
2021/06/30 06:23:13;;;;;;;;;6.00;5.75;;;;;17.70;100.00;101275.59;5080387;27;45408;-75
2021/06/30 06:25:39;;;;;;;;;7.75;6.75;;;;;17.70;100.00;101275.59;5080854;27;45343;-76
2021/06/30 06:28:05;;;;;;;;;6.75;5.75;;;;;17.73;100.00;101280.78;5080983;27;45429;-74
2021/06/30 06:30:32;;;;;;;;;5.50;5.50;;;;;17.78;100.00;101287.66;5080434;27;47274;-74
2021/06/30 06:32:57;;;;;;;;;5.00;5.00;;;;;17.77;100.00;101284.16;5080339;27;45457;-76
2021/06/30 06:35:23;;;;;;;;;6.75;6.00;;;;;17.71;100.00;101265.91;5080769;27;45233;-76
2021/06/30 06:37:49;;;;;;;;;6.75;6.00;;;;;17.81;100.00;101277.00;5080243;27;45163;-75
2021/06/30 06:40:15;;;;;;;;;6.50;5.00;;;;;17.86;100.00;101289.09;5080142;28;46464;-76
2021/06/30 06:42:40;;;;;;;;;6.75;6.50;;;;;17.86;100.00;101275.91;5080228;27;45452;-75
2021/06/30 06:48:27;;;;;;;;;8.00;6.00;;;;;17.91;100.00;101288.97;5080368;28;45349;-78
2021/06/30 06:50:53;;;;;;;;;8.75;7.75;;;;;17.89;100.00;101290.81;5079857;27;46776;-76
2021/06/30 06:53:18;;;;;;;;;8.00;7.50;;;;;17.92;100.00;101290.69;5080093;27;45373;-79
2021/06/30 06:55:43;;;;;;;;;6.50;6.25;;;;;17.97;100.00;101297.53;5080579;27;45284;-76
2021/06/30 06:58:09;;;;;;;;;7.75;7.50;;;;;17.95;100.00;101293.22;5080326;27;45464;-76
2021/06/30 07:03:56;;;;;;;;;8.00;6.50;;;;;17.98;100.00;101287.81;5079988;28;45285;-78
2021/06/30 07:06:21;;;;;;;;;7.50;7.00;;;;;18.00;100.00;101291.28;5079785;27;45336;-78
2021/06/30 07:08:47;;;;;;;;;8.25;8.00;;;;;17.94;100.00;101284.44;5080214;27;45558;-77
2021/06/30 07:11:12;;;;;;;;;8.25;7.50;;;;;17.97;100.00;101291.38;5079766;28;46117;-77
2021/06/30 07:13:39;;;;;;;;;11.00;7.00;;;;;18.03;100.00;101293.81;5079893;27;45226;-79
2021/06/30 07:16:05;;;;;;;;;10.00;7.75;;;;;18.01;100.00;101291.22;5078917;28;45308;-79
2021/06/30 07:18:32;;;;;;;;;8.50;7.75;;;;;18.01;100.00;101291.22;5080419;27;45420;-78
2021/06/30 07:20:57;;;;;;;;;9.00;9.00;;;;;18.00;100.00;101293.91;5079624;27;46199;-74
2021/06/30 07:23:22;;;;;;;;;9.50;8.00;;;;;17.97;100.00;101278.19;5079663;27;45334;-78
2021/06/30 07:25:50;;;;;;;;;7.00;6.50;;;;;18.05;100.00;101294.59;5080153;27;45354;-78
2021/06/30 07:28:16;;;;;;;;;8.75;8.75;;;;;18.06;100.00;101289.25;5078726;28;45271;-79
2021/06/30 07:34:04;;;;;;;;;6.00;5.00;;;;;18.16;100.00;101305.66;5068571;27;45395;-77
2021/06/30 07:36:30;;;;;;;;;9.00;7.00;;;;;18.22;100.00;101312.50;5079849;27;45417;-77
2021/06/30 07:38:55;;;;;;;;;8.50;8.00;;;;;18.24;100.00;101313.31;5079754;27;45312;-77
2021/06/30 07:41:21;;;;;;;;;9.75;8.00;;;;;18.20;100.00;101301.13;5079695;27;45371;-77
2021/06/30 07:43:46;;;;;;;;;9.25;7.75;;;;;18.27;100.00;101313.19;5079254;28;45303;-78
2021/06/30 07:46:12;;;;;;;;;7.75;7.50;;;;;18.34;100.00;101315.56;5079404;27;45394;-78
2021/06/30 07:48:37;;;;;;;;;8.00;7.25;;;;;18.49;100.00;101316.75;5079652;27;45193;-79
2021/06/30 07:51:03;;;;;;;;;11.25;9.25;;;;;18.63;100.00;101327.72;5079188;27;46589;-76
2021/06/30 07:53:28;;;;;;;;;8.75;7.50;;;;;18.68;100.00;101303.72;5079095;27;45402;-82
2021/06/30 07:55:54;;;;;;;;;10.25;8.50;;;;;18.81;100.00;101320.00;5079294;27;45276;-73
2021/06/30 07:58:20;;;;;;;;;9.00;7.00;;;;;18.91;100.00;101323.97;5079264;27;45410;-76
2021/06/30 08:04:08;;;;;;;;;7.00;7.00;;;;;18.88;100.00;101295.88;5078820;28;45237;-75
2021/06/30 08:06:35;;;;;;;;;9.00;9.00;;;;;19.10;100.00;101318.81;5079369;28;45209;-75
2021/06/30 08:09:01;;;;;;;;;11.00;10.00;;;;;19.22;100.00;101319.16;5079118;27;45439;-75
2021/06/30 08:11:26;;;;;;;;;8.00;8.00;;;;;19.31;100.00;101303.84;5078857;27;46306;-76
2021/06/30 08:13:52;;;;;;;;;8.75;8.75;;;;;19.42;100.00;101304.25;5078913;27;45477;-77
2021/06/30 08:16:19;;;;;;;;;8.00;7.75;;;;;19.62;100.00;101304.31;5079172;27;45379;-76
2021/06/30 08:18:45;;;;;;;;;7.75;7.50;;;;;19.80;100.00;101295.56;5079286;27;45373;-75
2021/06/30 08:21:10;;;;;;;;;8.75;8.50;;;;;20.06;100.00;101304.16;5078756;27;46347;-77
2021/06/30 08:23:36;;;;;;;;;9.00;8.00;;;;;20.20;100.00;101299.09;5078965;28;45273;-76
2021/06/30 08:26:01;;;;;;;;;10.25;10.00;;;;;20.34;100.00;101309.06;5078480;27;45309;-77
2021/06/30 08:28:27;;;;;;;;;8.25;7.75;;;;;20.35;100.00;101301.03;5078855;27;45367;-77
2021/06/30 08:34:14;;;;;;;;;9.25;8.25;;;;;20.53;100.00;101319.72;5076291;28;45297;-76
2021/06/30 08:36:40;;;;;;;;;10.75;9.00;;;;;20.58;100.00;101317.72;5078527;27;45379;-77
2021/06/30 08:39:05;;;;;;;;;9.00;9.00;;;;;20.64;100.00;101315.66;5078666;27;45349;-75
2021/06/30 08:41:31;;;;;;;;;7.50;7.50;;;;;20.79;100.00;101316.72;5077909;27;47008;-76
2021/06/30 08:43:57;;;;;;;;;8.25;7.00;;;;;20.93;100.00;101319.56;5078653;27;45283;-76
2021/06/30 08:46:23;;;;;;;;;8.75;7.00;;;;;21.05;100.00;101319.00;5078500;27;45311;-76
2021/06/30 08:48:50;;;;;;;;;8.00;8.00;;;;;21.15;100.00;101314.09;5078854;27;45247;-77
2021/06/30 08:51:25;;;;;;;;;8.25;7.25;;;;;21.24;100.00;101308.34;5077875;27;46637;-75
2021/06/30 08:53:55;;;;;;;;;9.00;8.00;;;;;21.47;100.00;101315.16;5078546;27;45393;-76
2021/06/30 08:56:30;;;;;;;;;8.50;7.25;;;;;21.57;100.00;101308.47;5078655;27;45389;-77
2021/06/30 08:58:56;;;;;;;;;8.25;8.00;;;;;21.64;100.00;101307.19;5078571;27;45379;-76
2021/06/30 09:01:21;;;;;;;;;8.00;7.00;;;;;21.67;100.00;101296.41;5078112;27;45602;-75
2021/06/30 09:03:50;;;;;;;;;6.50;6.00;;;;;21.64;100.00;101296.56;5077916;27;45279;-77
2021/06/30 09:06:18;;;;;;;;;8.75;8.50;;;;;21.54;100.00;101299.78;5076766;27;45459;-74
2021/06/30 09:08:43;;;;;;;;;8.25;8.00;;;;;21.48;100.00;101306.25;5078420;27;45414;-74
2021/06/30 09:11:18;;;;;;;;;8.50;7.25;;;;;21.43;100.00;101316.25;5077586;27;46973;-73
2021/06/30 09:13:44;;;;;;;;;8.00;7.50;;;;;21.37;100.00;101309.47;5076309;28;45539;-73
2021/06/30 09:19:47;;;;;;;;;12.25;8.75;;;;;21.34;100.00;101311.41;5078112;28;45568;-75
2021/06/30 09:22:13;;;;;;;;;10.00;8.25;;;;;21.34;100.00;101304.31;5077494;27;45402;-74
2021/06/30 09:24:38;;;;;;;;;10.50;8.50;;;;;21.44;100.00;101310.00;5077832;27;45533;-73
2021/06/30 09:27:04;;;;;;;;;10.75;9.25;;;;;21.55;100.00;101299.72;5076447;28;45288;-75
2021/06/30 09:29:30;;;;;;;;;8.00;7.50;;;;;21.71;100.00;101311.25;5078266;27;45231;-75
2021/06/30 09:31:55;;;;;;;;;9.25;9.25;;;;;21.84;100.00;101308.84;5077652;27;45326;-74
2021/06/30 09:34:24;;;;;;;;;8.75;8.50;;;;;22.06;100.00;101311.25;5077230;27;45320;-75
2021/06/30 09:36:58;;;;;;;;;10.50;9.25;;;;;22.27;100.00;101314.56;5077664;27;45634;-74
2021/06/30 09:39:24;;;;;;;;;8.75;8.75;;;;;22.40;100.00;101307.63;5077200;27;45333;-75
2021/06/30 09:42:01;;;;;;;;;10.00;8.00;;;;;22.40;100.00;101304.97;5077757;27;45373;-76
2021/06/30 09:44:27;;;;;;;;;9.75;9.00;;;;;22.24;100.00;101320.06;5077248;27;45364;-75
2021/06/30 09:46:54;;;;;;;;;9.00;9.00;;;;;22.02;100.00;101328.28;5077513;27;45303;-73
2021/06/30 09:49:21;;;;;;;;;9.00;9.00;;;;;21.76;100.00;101331.44;5077708;27;45451;-74
2021/06/30 09:52:01;;;;;;;;;19.00;17.25;;;;;21.48;100.00;101329.31;5077364;27;45421;-75
2021/06/30 09:54:30;;;;;;;;;11.25;10.00;;;;;21.14;100.00;101311.50;5077021;27;45299;-74
2021/06/30 09:56:56;;;;;;;;;7.75;7.50;;;;;21.10;100.00;101332.91;5077346;27;45205;-73
2021/06/30 09:59:27;;;;;;;;;8.75;7.75;;;;;20.94;100.00;101334.56;5077549;27;45469;-79
2021/06/30 10:01:59;;;;;;;;;8.25;7.50;;;;;20.77;100.00;101321.22;5077270;28;46197;-78
2021/06/30 10:04:31;;;;;;;;;16.75;15.50;;;;;20.84;100.00;101335.09;5077543;27;45391;-78
2021/06/30 10:06:59;;;;;;;;;6.00;5.50;;;;;20.86;100.00;101315.50;5077182;27;45382;-78
2021/06/30 10:09:25;;;;;;;;;8.25;8.25;;;;;21.05;100.00;101344.69;5077329;27;45588;-77
2021/06/30 10:12:07;;;;;;;;;10.75;9.50;;;;;21.12;100.00;101321.34;5075598;28;48169;-80
2021/06/30 10:14:33;;;;;;;;;9.00;7.50;;;;;21.21;100.00;101326.19;5077103;27;45604;-80
2021/06/30 10:16:59;;;;;;;;;10.75;8.25;;;;;21.36;100.00;101333.44;5077335;27;45410;-78
2021/06/30 10:19:25;;;;;;;;;9.00;8.00;;;;;21.41;100.00;101344.69;5077190;27;45371;-78
2021/06/30 10:21:51;;;;;;;;;9.25;7.25;;;;;21.27;100.00;101332.09;5076943;28;45422;-79
2021/06/30 10:24:18;;;;;;;;;8.50;7.50;;;;;21.26;100.00;101340.13;5076824;27;45318;-76
2021/06/30 10:26:44;;;;;;;;;9.75;9.50;;;;;21.20;100.00;101343.94;5076972;27;45243;-74
2021/06/30 10:29:10;;;;;;;;;6.25;6.25;;;;;21.10;100.00;101348.84;5076990;27;45218;-75
2021/06/30 10:35:00;;;;;;;;;12.75;10.00;;;;;20.77;100.00;101339.81;5069309;28;45397;-75
2021/06/30 10:37:28;;;;;;;;;11.75;11.00;;;;;20.63;100.00;101343.13;5076630;27;45281;-75
2021/06/30 10:40:02;;;;;;;;;13.00;11.00;;;;;20.57;100.00;101337.22;5076888;27;45389;-80
2021/06/30 10:42:34;;;;;;;;;9.25;9.00;;;;;20.64;100.00;101336.03;5076993;27;46532;-78
2021/06/30 10:45:03;;;;;;;;;11.00;10.25;;;;;20.90;100.00;101335.66;5076154;27;45304;-76
2021/06/30 10:47:42;;;;;;;;;11.75;10.25;;;;;21.27;100.00;101340.06;5076292;27;45401;-78
2021/06/30 10:50:17;;;;;;;;;10.75;10.00;;;;;21.72;100.00;101341.34;5077559;27;45268;-76
2021/06/30 10:52:45;;;;;;;;;10.00;9.50;;;;;22.06;100.00;101335.19;5078217;28;46403;-76
2021/06/30 10:55:36;;;;;;;;;10.50;10.00;;;;;22.39;100.00;101342.31;5080122;27;45469;-77
2021/06/30 10:58:11;;;;;;;;;11.25;10.50;;;;;22.61;100.00;101343.72;5079844;27;45347;-82
2021/06/30 11:00:38;;;;;;;;;9.50;9.25;;;;;22.82;100.00;101346.19;5080006;27;45396;-68
2021/06/30 11:03:34;;;;;;;;;12.50;9.75;;;;;23.05;100.00;101342.22;5079354;27;46311;-71
2021/06/30 11:06:21;;;;;;;;;9.25;9.00;;;;;23.42;100.00;101348.97;5079171;27;45319;-67
2021/06/30 11:08:56;;;;;;;;;11.25;9.75;;;;;24.12;100.00;101340.31;5079820;27;45344;-67
2021/06/30 11:11:26;;;;;;;;;9.00;8.50;;;;;24.52;100.00;101343.22;5079703;27;45449;-69
2021/06/30 11:14:07;;;;;;;;;12.00;10.00;;;;;24.54;100.00;101340.44;5079635;27;46458;-68
2021/06/30 11:16:43;;;;;;;;;11.50;10.75;;;;;24.38;100.00;101354.75;5079661;27;45363;-68
2021/06/30 11:19:15;;;;;;;;;11.25;10.25;;;;;24.03;100.00;101359.56;5079898;27;45369;-67
2021/06/30 11:21:47;;;;;;;;;8.50;8.50;;;;;23.67;100.00;101356.41;5079694;27;45319;-68
2021/06/30 11:27:05;;;;;;;;;11.50;10.50;;;;;23.10;100.00;101351.69;5079426;27;45269;-68
2021/06/30 11:32:52;;;;;;;;;13.00;12.75;;;;;22.84;100.00;101357.59;5079398;28;45394;-68
2021/06/30 11:35:27;;;;;;;;;12.00;11.00;;;;;22.81;100.00;101347.97;5078949;27;46089;-69
2021/06/30 11:38:00;;;;;;;;;12.00;10.00;;;;;22.94;100.00;101357.97;5079367;27;45607;-69
2021/06/30 11:42:53;;;;;;;;;10.75;10.00;;;;;23.18;100.00;101359.25;5079031;27;45486;-68
2021/06/30 11:48:41;;;;;;;;;11.00;10.75;;;;;23.48;100.00;101352.13;5078756;28;45495;-70
2021/06/30 11:51:11;;;;;;;;;12.00;10.75;;;;;23.51;100.00;101356.41;5079022;27;45475;-68
2021/06/30 11:53:48;;;;;;;;;10.00;9.00;;;;;23.45;100.00;101352.31;5079204;27;45344;-67
2021/06/30 11:56:32;;;;;;;;;11.75;11.00;;;;;23.36;100.00;101360.00;5078869;27;45279;-72
2021/06/30 11:58:58;;;;;;;;;9.50;9.00;;;;;23.18;100.00;101353.91;5079176;28;45243;-67
2021/06/30 12:04:45;;;;;;;;;8.50;8.25;;;;;22.71;100.00;101357.41;5079051;28;45448;-67
2021/06/30 12:07:10;;;;;;;;;10.25;10.00;;;;;22.43;100.00;101349.22;5078752;27;46085;-68
2021/06/30 12:09:36;;;;;;;;;13.00;11.00;;;;;22.37;100.00;101378.78;5078810;27;45269;-68
2021/06/30 12:12:05;;;;;;;;;11.00;10.00;;;;;22.18;100.00;101379.78;5078630;27;45357;-69
2021/06/30 12:14:36;;;;;;;;;9.75;9.75;;;;;22.02;100.00;101369.03;5079000;27;45380;-67
2021/06/30 12:20:27;;;;;;;;;11.50;10.50;;;;;21.76;100.00;101380.16;5078491;28;45758;-68
2021/06/30 12:22:53;;;;;;;;;12.50;10.50;;;;;21.71;100.00;101387.47;5077374;28;45427;-67
2021/06/30 12:25:19;;;;;;;;;10.25;10.00;;;;;21.67;100.00;101386.78;5078940;27;45344;-68
2021/06/30 12:27:53;;;;;;;;;11.25;9.50;;;;;21.60;100.00;101390.69;5078565;27;45996;-69
2021/06/30 12:30:21;;;;;;;;;11.25;10.00;;;;;21.61;100.00;101395.06;5078221;27;45505;-68
2021/06/30 12:32:54;;;;;;;;;10.25;10.25;;;;;21.55;100.00;101398.03;5078301;27;45350;-68
2021/06/30 12:35:31;;;;;;;;;9.75;8.75;;;;;21.46;100.00;101402.91;5078525;27;45533;-67
2021/06/30 12:38:02;;;;;;;;;10.00;9.75;;;;;21.30;100.00;101400.16;5078244;27;47709;-67
2021/06/30 12:40:27;;;;;;;;;10.25;9.75;;;;;21.23;100.00;101401.34;5078169;27;45187;-67
2021/06/30 12:42:55;;;;;;;;;12.00;11.00;;;;;21.18;100.00;101404.22;5078577;27;45354;-68